Time;durP1;ratioP1;P1;durP2;ratioP2;P2;SDS_P1;SDS_P2;PMS_P1;PMS_P2;Temp;Humidity;BMP_temperature;BMP_pressure;BME280_temperature;BME280_humidity;BME280_pressure;Samples;Min_cycle;Max_cycle;Signal;HPM_P1;HPM_P2
2022/04/10 00:01:49;;;;;;;3.93;2.00;;;;;;;4.06;78.73;98240.97;4993857;28;20207;-69
2022/04/10 00:04:16;;;;;;;3.63;1.73;;;;;;;4.07;79.70;98247.84;4993882;28;20290;-69
2022/04/10 00:06:42;;;;;;;3.00;2.03;;;;;;;4.04;79.86;98245.59;4993840;28;20317;-69
2022/04/10 00:09:08;;;;;;;2.67;1.70;;;;;;;4.07;78.97;98236.53;4994128;28;20215;-69
2022/04/10 00:11:35;;;;;;;2.53;1.77;;;;;;;4.02;80.11;98247.56;4993545;28;20215;-68
2022/04/10 00:14:01;;;;;;;3.30;1.80;;;;;;;3.95;79.74;98237.91;4993278;28;20261;-69
2022/04/10 00:16:28;;;;;;;3.30;1.90;;;;;;;3.98;80.57;98245.47;4993173;28;20573;-69
2022/04/10 00:18:54;;;;;;;4.37;1.90;;;;;;;3.95;79.85;98244.00;4993596;28;20209;-69
2022/04/10 00:21:21;;;;;;;2.90;1.87;;;;;;;3.85;80.90;98242.56;4993281;28;20689;-69
2022/04/10 00:23:47;;;;;;;4.10;2.20;;;;;;;3.87;81.40;98235.31;4993561;28;20230;-69
2022/04/10 00:26:14;;;;;;;4.00;1.97;;;;;;;3.84;81.54;98251.44;4997061;28;20215;-69
2022/04/10 00:28:40;;;;;;;2.50;1.90;;;;;;;3.94;79.48;98244.16;4997328;28;20315;-68
2022/04/10 00:31:06;;;;;;;2.97;1.80;;;;;;;3.91;79.30;98245.34;4997088;28;20258;-68
2022/04/10 00:33:33;;;;;;;3.27;2.00;;;;;;;3.97;79.15;98242.00;4996930;28;20238;-69
2022/04/10 00:35:59;;;;;;;3.73;2.07;;;;;;;4.00;77.70;98241.66;4996908;28;20218;-69
2022/04/10 00:38:26;;;;;;;4.17;2.03;;;;;;;3.94;78.65;98238.91;4996552;28;20627;-69
2022/04/10 00:40:52;;;;;;;3.47;1.80;;;;;;;3.93;78.72;98240.69;4996448;28;20211;-69
2022/04/10 00:43:18;;;;;;;5.30;2.10;;;;;;;3.96;77.74;98240.38;4996460;28;20203;-68
2022/04/10 00:45:45;;;;;;;6.03;2.30;;;;;;;3.92;78.78;98240.88;4996682;28;20207;-68
2022/04/10 00:48:11;;;;;;;6.10;2.63;;;;;;;3.95;78.76;98243.16;4996631;28;20223;-69
2022/04/10 00:51:39;;;;;;;4.33;2.23;;;;;;;3.93;79.48;98247.78;4996235;28;20211;-69
2022/04/10 00:53:26;;;;;;;1.87;1.70;;;;;;;3.90;79.87;98254.22;4996444;28;20258;-69
2022/04/10 00:55:53;;;;;;;4.47;2.13;;;;;;;3.93;78.14;98250.41;4996650;28;20211;-68
2022/04/10 00:58:19;;;;;;;4.80;2.20;;;;;;;3.98;79.38;98246.25;4996496;28;20230;-69
2022/04/10 01:00:46;;;;;;;5.10;2.40;;;;;;;3.91;79.75;98247.13;4979389;28;20213;-68
2022/04/10 01:03:12;;;;;;;5.23;2.40;;;;;;;3.91;78.96;98253.22;4996567;28;20217;-69
2022/04/10 01:05:40;;;;;;;3.80;2.67;;;;;;;3.89;79.40;98249.13;4996142;28;20207;-69
2022/04/10 01:08:06;;;;;;;6.47;2.40;;;;;;;3.93;79.05;98259.13;4996310;28;20239;-69
2022/04/10 01:10:33;;;;;;;4.43;2.10;;;;;;;4.02;79.00;98244.13;4996407;28;20215;-68
2022/04/10 01:13:00;;;;;;;4.57;2.00;;;;;;;4.04;79.17;98258.75;4996319;28;20228;-69
2022/04/10 01:15:26;;;;;;;3.27;2.10;;;;;;;4.08;79.11;98260.03;4995246;28;20210;-69
2022/04/10 01:17:53;;;;;;;3.13;2.13;;;;;;;4.06;78.63;98255.91;4996121;28;20231;-68
2022/04/10 01:20:21;;;;;;;5.33;2.47;;;;;;;3.99;80.10;98263.72;4995986;28;20667;-69
2022/04/10 01:22:47;;;;;;;2.27;1.90;;;;;;;4.07;79.29;98262.84;4995957;28;20199;-69
2022/04/10 01:25:14;;;;;;;3.50;2.20;;;;;;;4.04;79.53;98266.63;4996216;28;20209;-69
2022/04/10 01:27:42;;;;;;;3.40;2.20;;;;;;;4.11;78.85;98269.41;4996047;28;20227;-69
2022/04/10 01:30:12;;;;;;;6.60;2.50;;;;;;;4.09;78.87;98280.09;4996075;28;20207;-69
2022/04/10 01:32:38;;;;;;;3.83;2.57;;;;;;;4.16;79.36;98281.00;4996442;28;20219;-69
2022/04/10 01:35:06;;;;;;;3.67;2.53;;;;;;;4.11;79.67;98279.91;4996012;28;20211;-69
2022/04/10 01:37:35;;;;;;;3.13;2.00;;;;;;;4.12;80.56;98281.56;4994899;28;20226;-69
2022/04/10 01:40:02;;;;;;;3.60;2.10;;;;;;;4.10;79.36;98280.88;4995593;28;20211;-68
2022/04/10 01:42:28;;;;;;;4.67;2.43;;;;;;;4.11;81.61;98282.56;4995830;28;20629;-69
2022/04/10 01:44:55;;;;;;;4.60;2.10;;;;;;;4.12;79.21;98281.56;4995688;28;20211;-69
2022/04/10 01:47:21;;;;;;;3.73;2.40;;;;;;;4.15;79.39;98289.06;4995666;28;20242;-69
2022/04/10 01:49:48;;;;;;;4.77;2.13;;;;;;;4.08;80.53;98282.88;4995646;28;20204;-69
2022/04/10 01:52:14;;;;;;;3.73;2.23;;;;;;;3.98;81.41;98280.44;4995131;28;20218;-69
2022/04/10 01:54:40;;;;;;;4.77;2.40;;;;;;;4.04;80.00;98289.47;4995614;28;20210;-69
2022/04/10 01:57:08;;;;;;;3.43;2.27;;;;;;;3.99;80.80;98290.00;4995408;28;20238;-68
2022/04/10 01:59:34;;;;;;;4.80;2.57;;;;;;;3.97;80.70;98286.72;4995518;28;20210;-69
2022/04/10 02:02:01;;;;;;;4.83;2.70;;;;;;;3.89;80.94;98283.31;4995470;28;20207;-69
2022/04/10 02:04:27;;;;;;;4.93;2.57;;;;;;;3.85;81.06;98288.06;4995145;28;20212;-68
2022/04/10 02:06:54;;;;;;;3.50;2.10;;;;;;;3.77;81.99;98285.50;4995249;28;20249;-69
2022/04/10 02:09:20;;;;;;;4.20;2.47;;;;;;;3.78;81.40;98291.56;4995309;28;20192;-69
2022/04/10 02:11:47;;;;;;;3.03;2.63;;;;;;;3.80;81.66;98286.97;4995241;28;20214;-68
2022/04/10 02:14:14;;;;;;;5.27;2.43;;;;;;;3.79;81.24;98285.34;4995198;28;20231;-69
2022/04/10 02:16:40;;;;;;;3.30;2.57;;;;;;;3.77;82.27;98276.78;4994873;28;20666;-69
2022/04/10 02:19:06;;;;;;;2.07;1.93;;;;;;;3.66;82.52;98287.69;4995382;28;20214;-69
2022/04/10 02:21:33;;;;;;;2.53;2.20;;;;;;;3.65;82.80;98280.75;4995091;28;20237;-69
2022/04/10 02:23:59;;;;;;;4.70;2.40;;;;;;;3.56;83.71;98281.78;4994731;28;20570;-68
2022/04/10 02:26:25;;;;;;;3.07;2.53;;;;;;;3.50;83.70;98280.66;4994922;28;20203;-68
2022/04/10 02:28:52;;;;;;;5.33;2.70;;;;;;;3.59;82.96;98286.72;4994978;28;20305;-68
2022/04/10 02:31:18;;;;;;;3.77;2.37;;;;;;;3.50;83.98;98277.22;4994585;28;20671;-68
2022/04/10 02:33:44;;;;;;;3.83;2.80;;;;;;;3.53;83.10;98276.88;4994731;28;20585;-69
2022/04/10 02:36:11;;;;;;;4.10;2.87;;;;;;;3.52;83.24;98283.13;4994766;28;20207;-69
2022/04/10 02:38:38;;;;;;;4.27;2.70;;;;;;;3.51;82.89;98284.09;4994683;28;20231;-69
2022/04/10 02:41:04;;;;;;;4.07;2.60;;;;;;;3.45;83.19;98288.25;4994478;28;20249;-70
2022/04/10 02:43:30;;;;;;;3.27;2.47;;;;;;;3.43;83.13;98292.03;4995019;28;20211;-68
2022/04/10 02:45:57;;;;;;;3.10;2.60;;;;;;;3.38;84.43;98295.16;4994667;28;20211;-68
2022/04/10 02:48:23;;;;;;;3.03;2.73;;;;;;;3.33;84.61;98296.63;4993713;28;20234;-68
2022/04/10 02:50:50;;;;;;;4.17;2.80;;;;;;;3.27;85.36;98292.06;4994574;28;20203;-69
2022/04/10 02:53:16;;;;;;;4.90;2.90;;;;;;;3.30;85.50;98294.34;4994497;28;20229;-69
2022/04/10 02:55:42;;;;;;;2.93;2.63;;;;;;;3.40;84.35;98301.06;4994584;28;20216;-69
2022/04/10 02:58:09;;;;;;;5.17;2.77;;;;;;;3.24;84.98;98295.00;4994488;28;20230;-69
2022/04/10 03:00:36;;;;;;;3.70;2.60;;;;;;;3.21;84.55;98287.47;4994388;28;20213;-69
2022/04/10 03:03:02;;;;;;;4.40;2.83;;;;;;;3.23;84.49;98298.63;4994349;28;20626;-69
2022/04/10 03:05:28;;;;;;;3.13;2.60;;;;;;;3.21;84.29;98301.41;4994253;28;20235;-69
2022/04/10 03:07:55;;;;;;;3.63;2.80;;;;;;;3.21;83.88;98300.63;4993876;28;20587;-69
2022/04/10 03:10:22;;;;;;;3.47;2.87;;;;;;;3.24;83.73;98301.09;4994074;28;20211;-69
2022/04/10 03:12:48;;;;;;;4.67;2.90;;;;;;;3.26;83.66;98301.72;4994065;28;20227;-69
2022/04/10 03:15:15;;;;;;;3.90;2.90;;;;;;;3.23;84.70;98298.63;4993884;28;20589;-69
2022/04/10 03:17:41;;;;;;;5.17;3.30;;;;;;;3.19;84.50;98302.56;4993705;28;20239;-69
2022/04/10 03:20:11;;;;;;;6.33;3.33;;;;;;;3.20;83.86;98299.78;4993647;28;20207;-69
2022/04/10 03:22:37;;;;;;;4.43;2.93;;;;;;;3.15;84.39;98306.50;4994127;28;20207;-69
2022/04/10 03:25:04;;;;;;;5.73;2.87;;;;;;;3.04;85.59;98302.44;4994035;28;20214;-69
2022/04/10 03:27:30;;;;;;;4.53;2.90;;;;;;;3.04;84.69;98306.88;4994108;28;20251;-69
2022/04/10 03:29:57;;;;;;;4.10;3.10;;;;;;;3.02;85.59;98307.03;4993973;28;20214;-69
2022/04/10 03:32:23;;;;;;;4.80;3.00;;;;;;;2.92;86.53;98310.81;4993997;28;20207;-69
2022/04/10 03:34:49;;;;;;;3.50;3.20;;;;;;;2.89;86.35;98319.03;4993932;28;20213;-69
2022/04/10 03:37:16;;;;;;;3.33;3.03;;;;;;;2.98;85.18;98321.47;4993906;28;20279;-69
2022/04/10 03:39:42;;;;;;;3.70;3.40;;;;;;;2.97;84.42;98319.00;4993555;28;20218;-69
2022/04/10 03:42:09;;;;;;;4.40;2.73;;;;;;;2.96;85.02;98322.63;4993444;28;20211;-69
2022/04/10 03:44:35;;;;;;;4.43;3.10;;;;;;;3.04;84.68;98320.00;4993375;28;20206;-69
2022/04/10 03:47:01;;;;;;;5.33;3.47;;;;;;;2.99;84.50;98320.47;4993302;28;20326;-69
2022/04/10 03:49:28;;;;;;;5.53;3.03;;;;;;;2.94;85.50;98324.59;4993344;28;20215;-69
2022/04/10 03:51:54;;;;;;;4.27;3.30;;;;;;;2.91;85.11;98322.31;4993454;28;20207;-69
2022/04/10 03:54:20;;;;;;;4.20;3.27;;;;;;;3.01;84.63;98330.81;4993619;28;20675;-69
2022/04/10 03:56:47;;;;;;;4.40;3.20;;;;;;;2.99;84.78;98327.56;4993671;28;20326;-69
2022/04/10 03:59:13;;;;;;;3.60;3.10;;;;;;;2.91;85.16;98343.31;4994375;28;20211;-69
2022/04/10 04:01:40;;;;;;;3.53;3.17;;;;;;;2.88;85.62;98348.88;4997749;28;20302;-69
2022/04/10 04:04:06;;;;;;;4.03;3.00;;;;;;;2.87;86.23;98349.88;4997603;28;20203;-69
2022/04/10 04:06:32;;;;;;;3.47;3.00;;;;;;;2.88;85.36;98352.34;4997445;28;20233;-69
2022/04/10 04:08:59;;;;;;;4.67;3.20;;;;;;;2.86;86.13;98350.84;4997299;28;20246;-69
2022/04/10 04:11:25;;;;;;;5.33;3.50;;;;;;;2.97;84.77;98361.03;4997169;28;20207;-69
2022/04/10 04:13:52;;;;;;;4.10;3.33;;;;;;;2.96;85.28;98360.22;4996745;28;20230;-69
2022/04/10 04:16:18;;;;;;;5.60;3.70;;;;;;;2.95;84.92;98363.84;4997055;28;20203;-69
2022/04/10 04:18:45;;;;;;;4.90;3.70;;;;;;;2.98;86.67;98366.13;4996889;28;20294;-69
2022/04/10 04:21:11;;;;;;;4.10;3.53;;;;;;;3.04;84.37;98373.34;4997228;28;20281;-69
2022/04/10 04:23:38;;;;;;;4.27;3.70;;;;;;;3.05;84.85;98369.75;4997997;28;20229;-69
2022/04/10 04:26:05;;;;;;;3.90;3.27;;;;;;;3.10;84.28;98377.13;4997235;28;20215;-69
2022/04/10 04:28:35;;;;;;;6.03;3.67;;;;;;;3.13;85.07;98372.38;4997074;28;20593;-69
2022/04/10 04:31:01;;;;;;;4.20;3.80;;;;;;;3.16;84.45;98373.84;4997147;28;20246;-68
2022/04/10 04:33:28;;;;;;;4.77;3.37;;;;;;;3.17;85.67;98378.13;4997055;28;20230;-69
2022/04/10 04:35:54;;;;;;;5.10;3.50;;;;;;;3.11;85.93;98384.84;4997013;28;20215;-69
2022/04/10 04:38:20;;;;;;;3.90;3.50;;;;;;;3.12;84.89;98377.78;4996911;28;20223;-69
2022/04/10 04:40:47;;;;;;;4.10;3.70;;;;;;;3.20;84.50;98381.22;4996931;28;20211;-69
2022/04/10 04:43:13;;;;;;;5.13;3.70;;;;;;;3.19;86.18;98379.59;4996809;28;20199;-69
2022/04/10 04:45:39;;;;;;;5.90;3.87;;;;;;;3.23;85.10;98393.19;4996792;28;20215;-69
2022/04/10 04:48:06;;;;;;;3.97;3.67;;;;;;;3.26;86.09;98390.25;4996498;28;20227;-69
2022/04/10 04:50:32;;;;;;;7.03;3.80;;;;;;;3.26;84.28;98385.81;4996807;28;20218;-69
2022/04/10 04:52:59;;;;;;;4.13;3.50;;;;;;;3.35;82.88;98392.69;4996688;28;20230;-68
2022/04/10 04:55:26;;;;;;;4.03;3.53;;;;;;;3.38;83.11;98391.53;4996394;28;20239;-69
2022/04/10 04:57:52;;;;;;;4.97;3.60;;;;;;;3.38;85.53;98407.31;4996624;28;20227;-69
2022/04/10 05:00:19;;;;;;;7.00;3.60;;;;;;;3.46;83.59;98395.00;4997157;28;20210;-69
2022/04/10 05:02:46;;;;;;;6.10;3.47;;;;;;;3.47;82.69;98391.38;4996729;28;20246;-69
2022/04/10 05:05:12;;;;;;;4.27;3.67;;;;;;;3.48;82.51;98397.47;4996445;28;20207;-69
2022/04/10 05:07:38;;;;;;;4.40;4.00;;;;;;;3.47;84.80;98401.06;4995972;28;20714;-69
2022/04/10 05:10:05;;;;;;;5.40;3.97;;;;;;;3.53;84.21;98405.69;4996384;28;20243;-69
2022/04/10 05:12:32;;;;;;;5.07;3.80;;;;;;;3.66;82.05;98412.06;4995588;28;20207;-69
2022/04/10 05:14:59;;;;;;;4.80;4.20;;;;;;;3.61;82.26;98416.19;4996245;28;20235;-69
2022/04/10 05:17:28;;;;;;;4.33;3.93;;;;;;;3.67;83.90;98418.94;4996251;28;20226;-69
2022/04/10 05:19:54;;;;;;;4.97;3.40;;;;;;;3.67;82.43;98426.03;4996015;28;20686;-69
2022/04/10 05:22:21;;;;;;;4.50;3.67;;;;;;;3.71;82.69;98425.50;4996251;28;20211;-69
2022/04/10 05:24:47;;;;;;;3.63;3.30;;;;;;;3.77;81.98;98430.13;4996245;28;20199;-69
2022/04/10 05:27:14;;;;;;;5.10;3.60;;;;;;;3.79;82.95;98441.28;4995867;28;20733;-69
2022/04/10 05:29:40;;;;;;;4.67;3.97;;;;;;;3.85;81.33;98432.72;4995678;28;20681;-69
2022/04/10 05:32:07;;;;;;;6.43;3.93;;;;;;;3.86;81.93;98438.81;4995725;28;20207;-69
2022/04/10 05:34:33;;;;;;;6.40;3.93;;;;;;;3.90;81.44;98450.63;4995910;28;20580;-68
2022/04/10 05:36:59;;;;;;;4.03;3.47;;;;;;;3.94;79.65;98452.75;4995876;28;20235;-69
2022/04/10 05:39:26;;;;;;;6.40;3.90;;;;;;;3.96;80.28;98444.69;4995935;28;20234;-70
2022/04/10 05:41:52;;;;;;;4.00;3.50;;;;;;;4.01;79.72;98447.63;4996312;28;20219;-69
2022/04/10 05:44:18;;;;;;;9.83;3.80;;;;;;;3.98;81.74;98451.44;4996039;28;20210;-69
2022/04/10 05:46:45;;;;;;;3.57;3.17;;;;;;;4.04;79.45;98453.41;4995592;28;20224;-69
2022/04/10 05:49:11;;;;;;;4.63;3.40;;;;;;;4.07;80.45;98465.41;4995473;28;20212;-69
2022/04/10 05:51:38;;;;;;;4.47;3.60;;;;;;;4.03;78.04;98464.91;4995792;28;20287;-70
2022/04/10 05:54:04;;;;;;;3.63;3.30;;;;;;;4.11;79.71;98470.16;4995400;28;20698;-69
2022/04/10 05:56:31;;;;;;;4.50;3.83;;;;;;;4.13;77.78;98472.63;4995294;28;20211;-69
2022/04/10 05:58:57;;;;;;;5.13;3.60;;;;;;;4.18;77.76;98468.50;4995410;28;20204;-68
2022/04/10 06:01:24;;;;;;;4.07;3.43;;;;;;;4.35;77.95;98471.91;4995489;28;20317;-69
2022/04/10 06:03:50;;;;;;;4.60;3.80;;;;;;;4.41;76.71;98472.03;4995193;28;20659;-69
2022/04/10 06:06:18;;;;;;;5.33;3.70;;;;;;;4.48;76.51;98477.44;4995379;28;20407;-69
2022/04/10 06:08:44;;;;;;;3.67;3.30;;;;;;;4.56;76.68;98480.84;4995085;28;20225;-69
2022/04/10 06:11:11;;;;;;;4.07;3.10;;;;;;;4.55;76.23;98483.66;4995045;28;20207;-69
2022/04/10 06:13:37;;;;;;;3.80;3.50;;;;;;;4.52;75.51;98476.13;4995016;28;20645;-68
2022/04/10 06:16:04;;;;;;;6.47;3.50;;;;;;;4.53;75.73;98483.81;4995421;28;20211;-69
2022/04/10 06:18:30;;;;;;;5.27;3.30;;;;;;;4.57;75.24;98482.50;4995096;28;20278;-69
2022/04/10 06:20:56;;;;;;;4.70;3.57;;;;;;;4.59;75.62;98487.59;4995128;28;20208;-69
2022/04/10 06:23:23;;;;;;;4.87;3.10;;;;;;;4.70;75.08;98488.03;4994837;28;20211;-69
2022/04/10 06:25:50;;;;;;;4.90;3.27;;;;;;;4.74;75.09;98489.34;4994969;28;20207;-70
2022/04/10 06:28:16;;;;;;;4.00;3.60;;;;;;;4.87;73.79;98489.59;4994907;28;20321;-69
2022/04/10 06:30:45;;;;;;;7.27;3.43;;;;;;;4.94;74.05;98497.63;4995026;28;20207;-69
2022/04/10 06:33:12;;;;;;;5.67;3.30;;;;;;;4.89;73.65;98499.97;4994912;28;20203;-70
2022/04/10 06:35:39;;;;;;;4.13;2.73;;;;;;;4.99;73.20;98493.50;4994840;28;20229;-69
2022/04/10 06:38:05;;;;;;;3.70;2.70;;;;;;;5.19;73.40;98502.59;4994701;28;20233;-69
2022/04/10 06:40:32;;;;;;;5.23;3.30;;;;;;;5.18;72.81;98495.69;4994759;28;20215;-69
2022/04/10 06:42:58;;;;;;;3.00;2.70;;;;;;;5.33;73.39;98495.78;4994277;28;20566;-69
2022/04/10 06:45:24;;;;;;;5.67;3.20;;;;;;;5.25;72.37;98498.44;4994491;28;20225;-69
2022/04/10 06:47:51;;;;;;;4.07;2.90;;;;;;;5.19;73.02;98499.97;4994455;28;20231;-68
2022/04/10 06:50:17;;;;;;;3.87;2.80;;;;;;;5.18;72.80;98506.22;4994558;28;20207;-69
2022/04/10 06:52:44;;;;;;;4.70;2.80;;;;;;;5.21;73.09;98497.16;4994473;28;20214;-70
2022/04/10 06:55:11;;;;;;;3.83;3.10;;;;;;;5.38;73.03;98509.25;4994233;28;20227;-69
2022/04/10 06:57:37;;;;;;;3.90;3.03;;;;;;;5.28;72.22;98504.19;4994270;28;20710;-69
2022/04/10 07:00:04;;;;;;;4.83;3.00;;;;;;;5.45;71.21;98511.00;4994267;28;20214;-69
2022/04/10 07:02:33;;;;;;;3.70;3.23;;;;;;;5.38;71.15;98511.88;4994523;28;20215;-69
2022/04/10 07:04:59;;;;;;;3.47;3.00;;;;;;;5.42;71.00;98515.81;4994277;28;20228;-69
2022/04/10 07:07:25;;;;;;;4.13;3.00;;;;;;;5.69;71.91;98510.81;4994022;28;20257;-69
2022/04/10 07:09:52;;;;;;;4.97;2.90;;;;;;;5.93;69.52;98512.47;4994251;28;20196;-69
2022/04/10 07:12:18;;;;;;;6.83;2.97;;;;;;;5.92;70.69;98516.91;4994257;28;20203;-69
2022/04/10 07:14:45;;;;;;;4.27;2.93;;;;;;;5.60;69.14;98516.31;4994163;28;20233;-69
2022/04/10 07:17:11;;;;;;;4.00;3.47;;;;;;;5.87;69.18;98518.44;4994118;28;20229;-69
2022/04/10 07:19:37;;;;;;;6.67;3.20;;;;;;;5.87;69.32;98521.91;4994166;28;20220;-69
2022/04/10 07:24:48;;;;;;;3.03;2.77;;;;;;;5.91;68.54;98528.47;4993775;28;20174;-69
2022/04/10 07:27:14;;;;;;;4.17;3.10;;;;;;;5.86;68.81;98527.34;4994034;28;20234;-69
2022/04/10 07:29:40;;;;;;;6.17;3.20;;;;;;;6.04;68.75;98527.84;4994007;28;20313;-69
2022/04/10 07:32:07;;;;;;;4.63;3.40;;;;;;;6.04;69.06;98525.22;4994090;28;20211;-69
2022/04/10 07:34:34;;;;;;;4.77;3.03;;;;;;;6.26;67.67;98524.34;4994830;28;20226;-69
2022/04/10 07:37:00;;;;;;;3.40;3.03;;;;;;;6.23;68.63;98522.06;4998193;28;20249;-69
2022/04/10 07:39:26;;;;;;;4.03;2.90;;;;;;;6.34;67.30;98524.25;4997836;28;20215;-69
2022/04/10 07:41:53;;;;;;;3.87;3.03;;;;;;;6.59;68.16;98536.19;4997551;28;20666;-69
2022/04/10 07:44:19;;;;;;;4.07;2.93;;;;;;;6.45;65.57;98526.44;4997506;28;20203;-69
2022/04/10 07:49:29;;;;;;;5.53;3.53;;;;;;;6.50;65.70;98535.47;4997664;28;20190;-70
2022/04/10 07:51:56;;;;;;;3.90;2.80;;;;;;;6.49;64.75;98531.19;4997658;28;20585;-69
2022/04/10 07:54:22;;;;;;;4.23;3.33;;;;;;;6.62;66.50;98539.31;4997549;28;20227;-69
2022/04/10 07:56:49;;;;;;;6.33;3.70;;;;;;;6.83;66.83;98538.56;4997622;28;20223;-70
2022/04/10 07:59:16;;;;;;;3.50;3.17;;;;;;;6.95;65.11;98553.78;4997696;28;20221;-69
2022/04/10 08:01:42;;;;;;;4.03;3.10;;;;;;;6.86;62.73;98551.41;4997149;28;20592;-69
2022/04/10 08:04:08;;;;;;;4.53;2.83;;;;;;;7.15;62.88;98548.75;4997208;28;20203;-69
2022/04/10 08:06:35;;;;;;;4.37;3.20;;;;;;;7.74;63.91;98551.00;4997163;28;20218;-69
2022/04/10 08:09:01;;;;;;;5.27;3.17;;;;;;;7.16;63.07;98555.66;4997096;28;20219;-69
2022/04/10 08:11:28;;;;;;;4.47;2.97;;;;;;;7.20;62.51;98556.94;4997088;28;20207;-70
2022/04/10 08:13:54;;;;;;;3.87;2.93;;;;;;;7.10;62.45;98559.06;4997399;28;20238;-69
2022/04/10 08:16:20;;;;;;;3.50;2.83;;;;;;;7.46;63.56;98554.59;4997041;28;20294;-69
2022/04/10 08:18:47;;;;;;;4.10;3.10;;;;;;;7.31;61.59;98564.38;4997277;28;20219;-69
2022/04/10 08:21:13;;;;;;;5.23;3.50;;;;;;;7.05;60.46;98561.41;4997676;28;20214;-70
2022/04/10 08:23:39;;;;;;;5.70;3.20;;;;;;;7.58;59.76;98569.78;4997106;28;20208;-69
2022/04/10 08:26:06;;;;;;;3.97;2.90;;;;;;;7.26;57.72;98569.41;4996645;28;20685;-69
2022/04/10 08:28:34;;;;;;;3.97;2.80;;;;;;;7.40;57.85;98568.53;4996957;28;20231;-69
2022/04/10 08:31:01;;;;;;;6.87;3.67;;;;;;;8.12;56.88;98568.28;4997241;28;20253;-69
2022/04/10 08:33:27;;;;;;;6.03;3.17;;;;;;;8.32;55.96;98571.91;4997009;28;20208;-70
2022/04/10 08:35:54;;;;;;;4.00;2.70;;;;;;;8.20;56.08;98572.63;4996619;28;20249;-69
2022/04/10 08:38:20;;;;;;;3.60;3.17;;;;;;;7.90;58.51;98579.88;4997092;28;20223;-69
2022/04/10 08:40:47;;;;;;;4.00;2.80;;;;;;;7.68;58.30;98580.03;4996731;28;20214;-69
2022/04/10 08:43:14;;;;;;;7.77;3.10;;;;;;;7.69;57.65;98579.88;4996816;28;20207;-69
2022/04/10 08:45:40;;;;;;;3.70;2.93;;;;;;;7.35;57.62;98578.88;4996568;28;20557;-69
2022/04/10 08:48:07;;;;;;;3.63;2.93;;;;;;;7.14;58.55;98589.38;4996667;28;20239;-69
2022/04/10 08:50:33;;;;;;;5.53;3.10;;;;;;;7.66;58.75;98585.56;4996904;28;20246;-69
2022/04/10 08:53:00;;;;;;;3.30;3.00;;;;;;;8.04;56.48;98578.16;4996212;28;20219;-69
2022/04/10 08:55:26;;;;;;;4.07;3.20;;;;;;;7.52;57.44;98594.31;4995829;28;20698;-69
2022/04/10 08:57:53;;;;;;;4.60;3.30;;;;;;;7.50;58.51;98592.88;4997016;28;20242;-69
2022/04/10 09:00:20;;;;;;;4.87;3.50;;;;;;;7.94;58.01;98588.25;4996599;28;20211;-69
2022/04/10 09:02:48;;;;;;;5.03;3.37;;;;;;;8.17;56.54;98589.72;4996118;28;20687;-69
2022/04/10 09:05:20;;;;;;;5.13;3.40;;;;;;;7.77;54.69;98598.28;4996398;28;20204;-69
2022/04/10 09:08:12;;;;;;;4.07;3.03;;;;;;;7.78;55.05;98583.22;4996149;28;20243;-69
2022/04/10 09:11:02;;;;;;;8.43;3.47;;;;;;;7.75;55.22;98580.94;4995984;28;20187;-69
2022/04/10 09:13:37;;;;;;;4.53;2.63;;;;;;;7.52;55.27;98578.44;4996665;28;20199;-69
2022/04/10 09:16:15;;;;;;;4.47;2.77;;;;;;;7.77;56.65;98586.84;4995709;28;20724;-69
2022/04/10 09:18:52;;;;;;;5.70;3.27;;;;;;;8.47;55.22;98580.59;4996293;28;20231;-69
2022/04/10 09:21:24;;;;;;;4.60;3.10;;;;;;;7.71;55.69;98599.03;4995993;28;20198;-70
2022/04/10 09:23:56;;;;;;;4.03;3.00;;;;;;;7.77;54.46;98582.41;4996122;28;20191;-69
2022/04/10 09:26:23;;;;;;;3.20;2.80;;;;;;;8.01;54.45;98582.00;4996214;28;20212;-69
2022/04/10 09:28:50;;;;;;;5.53;3.10;;;;;;;8.02;54.03;98588.13;4995949;28;20207;-69
2022/04/10 09:31:27;;;;;;;4.90;2.50;;;;;;;8.15;52.99;98581.13;4995999;28;20210;-69
2022/04/10 09:33:54;;;;;;;3.70;2.77;;;;;;;7.86;55.90;98586.56;4995499;28;20211;-69
2022/04/10 09:36:43;;;;;;;5.97;3.03;;;;;;;7.95;54.77;98593.38;4995579;28;20227;-69
2022/04/10 09:39:14;;;;;;;5.10;2.80;;;;;;;7.93;54.68;98589.28;4995728;28;20191;-68
2022/04/10 09:41:42;;;;;;;3.83;2.80;;;;;;;7.63;55.00;98579.78;4995612;28;20211;-68
2022/04/10 09:44:20;;;;;;;4.43;2.90;;;;;;;8.28;55.51;98578.59;4995420;28;20670;-68
2022/04/10 09:47:00;;;;;;;2.43;2.03;;;;;;;8.81;50.39;98585.09;4995315;28;20227;-70
2022/04/10 09:49:34;;;;;;;4.73;2.73;;;;;;;9.33;52.02;98569.47;4995784;28;20191;-69
2022/04/10 09:52:21;;;;;;;4.83;2.50;;;;;;;8.80;52.96;98575.53;4995755;28;20233;-69
2022/04/10 09:54:50;;;;;;;3.63;2.20;;;;;;;8.97;49.19;98582.16;4995890;28;20239;-69
2022/04/10 09:57:22;;;;;;;3.33;2.00;;;;;;;9.31;48.02;98564.34;4994536;28;20748;-68
2022/04/10 09:59:51;;;;;;;4.27;2.30;;;;;;;9.04;48.25;98564.41;4995456;28;20191;-69
2022/04/10 10:02:21;;;;;;;5.20;2.47;;;;;;;8.72;48.41;98573.00;4995009;28;20211;-69
2022/04/10 10:04:49;;;;;;;2.97;2.30;;;;;;;8.52;47.17;98574.72;4995316;28;20192;-69
2022/04/10 10:07:20;;;;;;;3.03;2.43;;;;;;;8.42;49.62;98576.91;4995228;28;20233;-69
2022/04/10 10:09:49;;;;;;;4.07;2.67;;;;;;;8.58;51.73;98571.28;4995469;28;20303;-69
2022/04/10 10:12:17;;;;;;;5.90;2.67;;;;;;;8.88;49.26;98575.38;4995209;28;20206;-69
2022/04/10 10:14:44;;;;;;;2.63;2.43;;;;;;;9.05;49.06;98574.03;4994991;28;20227;-70
2022/04/10 10:17:11;;;;;;;3.33;2.30;;;;;;;8.90;49.91;98574.16;4994875;28;20224;-69
2022/04/10 10:19:41;;;;;;;4.63;2.50;;;;;;;8.34;49.01;98577.03;4995001;28;20576;-69
2022/04/10 10:22:10;;;;;;;5.93;2.00;;;;;;;8.20;50.42;98580.56;4995690;28;20238;-69
2022/04/10 10:24:57;;;;;;;4.07;2.10;;;;;;;7.93;49.32;98573.38;4994749;28;20204;-69
2022/04/10 10:27:42;;;;;;;3.37;2.23;;;;;;;7.64;51.38;98592.84;4994037;28;20227;-69
2022/04/10 10:30:35;;;;;;;4.77;2.50;;;;;;;7.42;57.05;98590.38;4993531;28;20192;-69
2022/04/10 10:33:22;;;;;;;6.10;3.00;;;;;;;7.30;62.16;98589.19;4967008;28;20565;-68
2022/04/10 10:35:51;;;;;;;3.53;2.83;;;;;;;7.34;60.03;98593.09;4994607;28;20219;-69
2022/04/10 10:38:26;;;;;;;4.13;2.73;;;;;;;7.30;59.58;98592.66;4994421;28;20714;-69
2022/04/10 10:41:17;;;;;;;4.53;2.83;;;;;;;7.20;60.00;98599.25;4994628;28;20198;-69
2022/04/10 10:43:44;;;;;;;6.43;3.30;;;;;;;7.21;60.51;98598.22;4994183;28;20203;-69
2022/04/10 10:46:21;;;;;;;4.67;3.27;;;;;;;7.48;60.08;98600.19;4994198;28;20207;-69
2022/04/10 10:48:50;;;;;;;7.17;3.93;;;;;;;7.70;61.49;98599.22;4994737;28;20219;-69
2022/04/10 10:51:18;;;;;;;4.80;3.60;;;;;;;7.99;59.62;98602.56;4994238;28;20203;-69
2022/04/10 10:53:59;;;;;;;4.63;3.33;;;;;;;8.08;59.53;98590.00;4995097;28;20234;-69
2022/04/10 10:56:31;;;;;;;5.47;3.50;;;;;;;8.19;58.64;98589.53;4994151;28;20218;-69
2022/04/10 10:59:26;;;;;;;6.33;3.43;;;;;;;7.84;57.18;98595.69;4993945;28;20569;-69
2022/04/10 11:02:04;;;;;;;4.40;3.00;;;;;;;7.85;58.74;98592.88;4994223;28;20192;-69
2022/04/10 11:04:35;;;;;;;3.93;2.20;;;;;;;7.53;56.05;98597.81;4994119;28;20192;-69
2022/04/10 11:07:20;;;;;;;2.60;2.40;;;;;;;7.02;61.92;98602.25;4993762;28;20231;-68
2022/04/10 11:10:01;;;;;;;2.70;2.23;;;;;;;7.20;59.48;98601.88;4993122;28;20282;-69
2022/04/10 11:12:54;;;;;;;1.70;1.60;;;;;;;7.41;57.96;98594.81;4994054;28;20677;-69
2022/04/10 11:15:23;;;;;;;3.93;2.40;;;;;;;7.49;56.15;98600.00;4990514;28;20227;-68
2022/04/10 11:17:51;;;;;;;2.43;1.53;;;;;;;7.68;55.05;98594.09;4993747;28;20227;-69
2022/04/10 11:20:20;;;;;;;2.13;1.80;;;;;;;8.19;55.46;98581.56;4994439;28;20213;-69
2022/04/10 11:22:53;;;;;;;2.20;2.00;;;;;;;7.98;54.83;98584.22;4994108;28;20211;-69
2022/04/10 11:25:41;;;;;;;3.00;2.60;;;;;;;8.01;54.83;98576.72;4993806;28;20210;-68
2022/04/10 11:28:08;;;;;;;2.50;2.30;;;;;;;7.90;56.83;98579.06;4994363;28;20235;-69
2022/04/10 11:30:43;;;;;;;4.80;2.97;;;;;;;7.89;55.04;98588.00;4993817;28;20203;-68
2022/04/10 11:33:11;;;;;;;3.83;2.70;;;;;;;7.93;56.27;98581.34;4994106;28;20211;-68
2022/04/10 11:35:39;;;;;;;3.90;3.00;;;;;;;8.09;56.03;98589.00;4993826;28;20746;-69
2022/04/10 11:38:11;;;;;;;4.53;3.17;;;;;;;8.01;55.51;98574.06;4993560;28;20231;-69
2022/04/10 11:40:42;;;;;;;4.83;2.87;;;;;;;8.29;55.62;98569.66;4993416;28;20238;-68
2022/04/10 11:43:11;;;;;;;5.67;3.00;;;;;;;8.28;54.98;98573.31;4993536;28;20203;-68
2022/04/10 11:45:38;;;;;;;4.73;3.03;;;;;;;8.63;56.52;98564.41;4993840;28;20239;-68
2022/04/10 11:48:06;;;;;;;5.10;3.27;;;;;;;8.73;55.22;98556.13;4993615;28;20231;-69
2022/04/10 11:50:33;;;;;;;5.10;3.23;;;;;;;8.69;53.77;98552.22;4993675;28;20294;-69
2022/04/10 11:53:11;;;;;;;4.83;3.37;;;;;;;8.92;53.65;98540.28;4993401;28;20207;-68